sensor_id;sensor_type;location;lat;lon;timestamp;pressure;altitude;pressure_sealevel;temperature;humidity
30819;BME280;17546;42.674;23.284;2022-12-20T00:00:01;96512.75;;;8.33;39.96
30819;BME280;17546;42.674;23.284;2022-12-20T00:02:27;96518.31;;;8.46;39.73
30819;BME280;17546;42.674;23.284;2022-12-20T00:04:52;96515.84;;;8.35;39.93
30819;BME280;17546;42.674;23.284;2022-12-20T00:07:17;96515.84;;;8.35;40.12
30819;BME280;17546;42.674;23.284;2022-12-20T00:09:43;96517.94;;;8.18;40.09
30819;BME280;17546;42.674;23.284;2022-12-20T00:12:08;96525.91;;;8.00;40.54
30819;BME280;17546;42.674;23.284;2022-12-20T00:14:34;96518.91;;;8.12;40.17
30819;BME280;17546;42.674;23.284;2022-12-20T00:16:59;96513.59;;;8.17;39.98
30819;BME280;17546;42.674;23.284;2022-12-20T00:19:25;96518.78;;;8.15;40.19
30819;BME280;17546;42.674;23.284;2022-12-20T00:21:50;96522.53;;;8.08;40.33
30819;BME280;17546;42.674;23.284;2022-12-20T00:24:16;96521.91;;;8.30;39.94
30819;BME280;17546;42.674;23.284;2022-12-20T00:26:41;96526.63;;;8.17;39.96
30819;BME280;17546;42.674;23.284;2022-12-20T00:29:07;96521.19;;;8.00;39.84
30819;BME280;17546;42.674;23.284;2022-12-20T00:31:32;96517.63;;;8.00;39.98
30819;BME280;17546;42.674;23.284;2022-12-20T00:33:59;96519.72;;;8.25;39.62
30819;BME280;17546;42.674;23.284;2022-12-20T00:36:26;96524.09;;;8.10;39.95
30819;BME280;17546;42.674;23.284;2022-12-20T00:38:53;96516.19;;;7.95;40.13
30819;BME280;17546;42.674;23.284;2022-12-20T00:41:24;96519.88;;;8.05;40.11
30819;BME280;17546;42.674;23.284;2022-12-20T00:43:50;96515.50;;;8.20;39.98
30819;BME280;17546;42.674;23.284;2022-12-20T00:46:17;96503.53;;;8.11;39.70
30819;BME280;17546;42.674;23.284;2022-12-20T00:48:43;96517.41;;;7.94;39.97
30819;BME280;17546;42.674;23.284;2022-12-20T00:51:11;96522.19;;;8.06;39.53
30819;BME280;17546;42.674;23.284;2022-12-20T00:53:37;96514.00;;;8.03;39.71
30819;BME280;17546;42.674;23.284;2022-12-20T00:56:04;96521.13;;;8.17;39.43
30819;BME280;17546;42.674;23.284;2022-12-20T00:58:35;96520.13;;;8.23;39.45
30819;BME280;17546;42.674;23.284;2022-12-20T01:01:01;96519.38;;;8.23;39.90
30819;BME280;17546;42.674;23.284;2022-12-20T01:03:27;96526.22;;;8.31;39.58
30819;BME280;17546;42.674;23.284;2022-12-20T01:05:55;96523.78;;;8.33;39.18
30819;BME280;17546;42.674;23.284;2022-12-20T01:08:22;96513.88;;;8.36;38.89
30819;BME280;17546;42.674;23.284;2022-12-20T01:11:04;96521.84;;;8.46;38.96
30819;BME280;17546;42.674;23.284;2022-12-20T01:13:32;96516.72;;;8.32;38.90
30819;BME280;17546;42.674;23.284;2022-12-20T01:16:08;96512.25;;;7.80;39.27
30819;BME280;17546;42.674;23.284;2022-12-20T01:18:35;96504.81;;;7.93;39.09
30819;BME280;17546;42.674;23.284;2022-12-20T01:21:03;96503.53;;;8.11;38.94
30819;BME280;17546;42.674;23.284;2022-12-20T01:23:29;96505.91;;;7.96;39.44
30819;BME280;17546;42.674;23.284;2022-12-20T01:25:57;96498.75;;;7.98;39.70
30819;BME280;17546;42.674;23.284;2022-12-20T01:28:22;96507.19;;;8.07;39.44
30819;BME280;17546;42.674;23.284;2022-12-20T01:30:47;96494.00;;;7.99;39.40
30819;BME280;17546;42.674;23.284;2022-12-20T01:33:13;96489.25;;;7.99;39.39
30819;BME280;17546;42.674;23.284;2022-12-20T01:35:38;96489.22;;;8.16;39.19
30819;BME280;17546;42.674;23.284;2022-12-20T01:38:04;96487.44;;;8.22;39.06
30819;BME280;17546;42.674;23.284;2022-12-20T01:40:29;96488.66;;;8.21;39.09
30819;BME280;17546;42.674;23.284;2022-12-20T01:42:55;96485.69;;;8.28;38.79
30819;BME280;17546;42.674;23.284;2022-12-20T01:45:32;96475.84;;;8.14;38.69
30819;BME280;17546;42.674;23.284;2022-12-20T01:47:58;96483.13;;;8.21;38.93
30819;BME280;17546;42.674;23.284;2022-12-20T01:50:24;96478.09;;;7.90;38.64
30819;BME280;17546;42.674;23.284;2022-12-20T01:52:51;96477.19;;;7.93;38.79
30819;BME280;17546;42.674;23.284;2022-12-20T01:55:23;96476.94;;;8.17;38.56
30819;BME280;17546;42.674;23.284;2022-12-20T01:57:57;96472.97;;;8.18;38.63
30819;BME280;17546;42.674;23.284;2022-12-20T02:00:24;96463.16;;;8.30;38.56
30819;BME280;17546;42.674;23.284;2022-12-20T02:02:50;96470.19;;;8.18;38.76
30819;BME280;17546;42.674;23.284;2022-12-20T02:05:18;96473.63;;;8.22;38.31
30819;BME280;17546;42.674;23.284;2022-12-20T02:07:51;96468.31;;;8.15;38.37
30819;BME280;17546;42.674;23.284;2022-12-20T02:10:18;96465.91;;;8.17;38.05
30819;BME280;17546;42.674;23.284;2022-12-20T02:13:10;96468.66;;;8.17;38.75
30819;BME280;17546;42.674;23.284;2022-12-20T02:15:53;96466.88;;;8.10;38.85
30819;BME280;17546;42.674;23.284;2022-12-20T02:21:01;96461.72;;;7.54;38.84
30819;BME280;17546;42.674;23.284;2022-12-20T02:27:05;96466.03;;;7.84;38.68
30819;BME280;17546;42.674;23.284;2022-12-20T02:30:19;96461.28;;;7.84;38.85
30819;BME280;17546;42.674;23.284;2022-12-20T02:32:58;96457.97;;;7.77;38.74
30819;BME280;17546;42.674;23.284;2022-12-20T02:35:28;96466.56;;;7.79;38.88
30819;BME280;17546;42.674;23.284;2022-12-20T02:38:00;96466.63;;;7.92;39.16
30819;BME280;17546;42.674;23.284;2022-12-20T02:40:31;96473.38;;;8.03;38.70
30819;BME280;17546;42.674;23.284;2022-12-20T02:43:02;96460.91;;;7.99;38.63
30819;BME280;17546;42.674;23.284;2022-12-20T02:45:32;96456.22;;;7.96;38.60
30819;BME280;17546;42.674;23.284;2022-12-20T02:48:05;96454.72;;;8.07;38.48
30819;BME280;17546;42.674;23.284;2022-12-20T02:50:42;96453.31;;;8.16;38.08
30819;BME280;17546;42.674;23.284;2022-12-20T02:53:09;96455.88;;;8.23;38.24
30819;BME280;17546;42.674;23.284;2022-12-20T02:55:44;96461.34;;;8.10;38.08
30819;BME280;17546;42.674;23.284;2022-12-20T02:58:17;96459.59;;;8.16;37.90
30819;BME280;17546;42.674;23.284;2022-12-20T03:00:48;96457.06;;;8.22;37.90
30819;BME280;17546;42.674;23.284;2022-12-20T03:03:15;96447.03;;;8.28;38.11
30819;BME280;17546;42.674;23.284;2022-12-20T03:05:48;96445.81;;;8.29;38.23
30819;BME280;17546;42.674;23.284;2022-12-20T03:08:14;96452.44;;;8.19;37.67
30819;BME280;17546;42.674;23.284;2022-12-20T03:10:40;96450.66;;;8.12;37.69
30819;BME280;17546;42.674;23.284;2022-12-20T03:13:06;96441.69;;;8.08;38.39
30819;BME280;17546;42.674;23.284;2022-12-20T03:15:31;96442.91;;;8.20;38.19
30819;BME280;17546;42.674;23.284;2022-12-20T03:17:57;96434.53;;;8.23;37.79
30819;BME280;17546;42.674;23.284;2022-12-20T03:20:23;96438.28;;;8.17;37.83
30819;BME280;17546;42.674;23.284;2022-12-20T03:22:48;96441.84;;;8.30;37.52
30819;BME280;17546;42.674;23.284;2022-12-20T03:25:14;96439.75;;;8.34;37.60
30819;BME280;17546;42.674;23.284;2022-12-20T03:27:39;96438.06;;;8.24;37.62
30819;BME280;17546;42.674;23.284;2022-12-20T03:30:05;96438.06;;;8.24;37.46
30819;BME280;17546;42.674;23.284;2022-12-20T03:32:31;96438.84;;;8.24;37.70
30819;BME280;17546;42.674;23.284;2022-12-20T03:34:56;96438.97;;;8.21;37.65
30819;BME280;17546;42.674;23.284;2022-12-20T03:37:22;96443.25;;;8.22;37.43
30819;BME280;17546;42.674;23.284;2022-12-20T03:39:47;96439.25;;;7.97;37.91
30819;BME280;17546;42.674;23.284;2022-12-20T03:42:12;96436.84;;;8.12;37.72
30819;BME280;17546;42.674;23.284;2022-12-20T03:44:38;96433.84;;;8.06;38.18
30819;BME280;17546;42.674;23.284;2022-12-20T03:47:03;96432.09;;;8.13;38.08
30819;BME280;17546;42.674;23.284;2022-12-20T03:49:29;96436.59;;;8.06;38.24
30819;BME280;17546;42.674;23.284;2022-12-20T03:51:54;96434.13;;;8.25;38.07
30819;BME280;17546;42.674;23.284;2022-12-20T03:54:19;96424.81;;;8.19;38.34
30819;BME280;17546;42.674;23.284;2022-12-20T03:56:45;96424.81;;;8.19;38.39
30819;BME280;17546;42.674;23.284;2022-12-20T03:59:10;96428.94;;;8.27;38.03
30819;BME280;17546;42.674;23.284;2022-12-20T04:01:35;96427.16;;;8.20;38.11
30819;BME280;17546;42.674;23.284;2022-12-20T04:04:03;96432.88;;;8.13;38.21
30819;BME280;17546;42.674;23.284;2022-12-20T04:06:30;96444.53;;;7.92;38.41
30819;BME280;17546;42.674;23.284;2022-12-20T04:08:55;96441.59;;;8.12;38.13
30819;BME280;17546;42.674;23.284;2022-12-20T04:11:20;96435.94;;;8.02;38.74
30819;BME280;17546;42.674;23.284;2022-12-20T04:13:48;96437.28;;;8.11;38.45
30819;BME280;17546;42.674;23.284;2022-12-20T04:16:16;96415.97;;;7.98;38.58
30819;BME280;17546;42.674;23.284;2022-12-20T04:18:41;96432.88;;;8.00;38.72
30819;BME280;17546;42.674;23.284;2022-12-20T04:21:08;96429.22;;;8.03;38.88
30819;BME280;17546;42.674;23.284;2022-12-20T04:23:37;96428.31;;;8.06;38.29
30819;BME280;17546;42.674;23.284;2022-12-20T04:26:04;96431.19;;;7.90;38.12
30819;BME280;17546;42.674;23.284;2022-12-20T04:28:31;96425.09;;;7.95;38.01
30819;BME280;17546;42.674;23.284;2022-12-20T04:30:57;96431.84;;;7.94;38.51
30819;BME280;17546;42.674;23.284;2022-12-20T04:33:23;96422.22;;;7.86;38.46
30819;BME280;17546;42.674;23.284;2022-12-20T04:35:49;96416.78;;;7.70;39.20
30819;BME280;17546;42.674;23.284;2022-12-20T04:38:16;96416.16;;;7.91;38.60
30819;BME280;17546;42.674;23.284;2022-12-20T04:40:42;96405.75;;;7.82;38.88
30819;BME280;17546;42.674;23.284;2022-12-20T04:43:07;96414.19;;;7.92;38.11
30819;BME280;17546;42.674;23.284;2022-12-20T04:45:33;96409.66;;;7.85;38.01
30819;BME280;17546;42.674;23.284;2022-12-20T04:47:58;96407.63;;;7.73;38.57
30819;BME280;17546;42.674;23.284;2022-12-20T04:50:24;96406.09;;;7.84;38.05
30819;BME280;17546;42.674;23.284;2022-12-20T04:52:49;96413.22;;;7.69;38.26
30819;BME280;17546;42.674;23.284;2022-12-20T04:55:38;96417.22;;;7.68;38.85
30819;BME280;17546;42.674;23.284;2022-12-20T04:58:05;96420.34;;;7.24;38.71
30819;BME280;17546;42.674;23.284;2022-12-20T05:00:32;96412.41;;;7.43;38.76
30819;BME280;17546;42.674;23.284;2022-12-20T05:02:58;96408.28;;;7.18;38.76
30819;BME280;17546;42.674;23.284;2022-12-20T05:05:23;96414.94;;;7.21;39.11
30819;BME280;17546;42.674;23.284;2022-12-20T05:07:50;96413.00;;;6.89;39.93
30819;BME280;17546;42.674;23.284;2022-12-20T05:10:16;96401.72;;;6.83;39.78
30819;BME280;17546;42.674;23.284;2022-12-20T05:12:42;96407.66;;;6.98;40.06
30819;BME280;17546;42.674;23.284;2022-12-20T05:15:08;96408.81;;;7.13;39.48
30819;BME280;17546;42.674;23.284;2022-12-20T05:17:33;96412.41;;;7.27;39.64
30819;BME280;17546;42.674;23.284;2022-12-20T05:19:59;96414.50;;;7.22;39.55
30819;BME280;17546;42.674;23.284;2022-12-20T05:22:24;96405.06;;;7.36;39.19
30819;BME280;17546;42.674;23.284;2022-12-20T05:25:17;96416.22;;;7.16;39.89
30819;BME280;17546;42.674;23.284;2022-12-20T05:28:01;96414.88;;;7.08;39.60
30819;BME280;17546;42.674;23.284;2022-12-20T05:30:27;96417.44;;;7.15;39.90
30819;BME280;17546;42.674;23.284;2022-12-20T05:32:52;96415.38;;;7.19;39.38
30819;BME280;17546;42.674;23.284;2022-12-20T05:35:18;96412.28;;;7.17;40.08
30819;BME280;17546;42.674;23.284;2022-12-20T05:37:44;96421.13;;;7.25;39.70
30819;BME280;17546;42.674;23.284;2022-12-20T05:40:09;96412.69;;;7.16;39.83
30819;BME280;17546;42.674;23.284;2022-12-20T05:42:35;96420.78;;;7.23;39.16
30819;BME280;17546;42.674;23.284;2022-12-20T05:45:01;96428.63;;;7.24;38.77
30819;BME280;17546;42.674;23.284;2022-12-20T05:47:27;96428.22;;;6.93;39.63
30819;BME280;17546;42.674;23.284;2022-12-20T05:49:52;96420.13;;;7.02;39.56
30819;BME280;17546;42.674;23.284;2022-12-20T05:52:18;96426.50;;;6.99;39.75
30819;BME280;17546;42.674;23.284;2022-12-20T05:54:43;96422.13;;;7.02;39.44
30819;BME280;17546;42.674;23.284;2022-12-20T05:57:09;96428.16;;;6.97;40.43
30819;BME280;17546;42.674;23.284;2022-12-20T05:59:34;96421.06;;;6.96;40.47
30819;BME280;17546;42.674;23.284;2022-12-20T06:02:00;96429.66;;;7.14;39.72
30819;BME280;17546;42.674;23.284;2022-12-20T06:04:25;96431.00;;;6.77;39.36
30819;BME280;17546;42.674;23.284;2022-12-20T06:06:51;96428.50;;;6.82;39.52
30819;BME280;17546;42.674;23.284;2022-12-20T06:09:16;96437.78;;;6.89;39.61
30819;BME280;17546;42.674;23.284;2022-12-20T06:11:42;96429.72;;;6.81;39.58
30819;BME280;17546;42.674;23.284;2022-12-20T06:14:07;96422.28;;;6.78;39.20
30819;BME280;17546;42.674;23.284;2022-12-20T06:16:32;96418.69;;;6.65;40.46
30819;BME280;17546;42.674;23.284;2022-12-20T06:18:58;96426.69;;;6.92;39.81
30819;BME280;17546;42.674;23.284;2022-12-20T06:21:25;96425.22;;;7.04;40.04
30819;BME280;17546;42.674;23.284;2022-12-20T06:23:52;96433.13;;;7.02;39.72
30819;BME280;17546;42.674;23.284;2022-12-20T06:26:19;96429.16;;;7.03;39.48
30819;BME280;17546;42.674;23.284;2022-12-20T06:28:44;96426.31;;;7.07;41.32
30819;BME280;17546;42.674;23.284;2022-12-20T06:31:10;96425.19;;;7.20;40.83
30819;BME280;17546;42.674;23.284;2022-12-20T06:33:36;96428.19;;;7.26;40.05
30819;BME280;17546;42.674;23.284;2022-12-20T06:36:02;96430.84;;;7.30;39.32
30819;BME280;17546;42.674;23.284;2022-12-20T06:38:27;96422.06;;;7.18;39.86
30819;BME280;17546;42.674;23.284;2022-12-20T06:40:53;96421.56;;;7.23;39.42
30819;BME280;17546;42.674;23.284;2022-12-20T06:43:18;96425.88;;;7.24;39.12
30819;BME280;17546;42.674;23.284;2022-12-20T06:45:44;96415.72;;;7.21;39.40
30819;BME280;17546;42.674;23.284;2022-12-20T06:48:10;96413.59;;;7.42;39.18
30819;BME280;17546;42.674;23.284;2022-12-20T06:50:37;96412.53;;;7.52;39.06
30819;BME280;17546;42.674;23.284;2022-12-20T06:53:02;96409.31;;;7.54;38.53
30819;BME280;17546;42.674;23.284;2022-12-20T06:55:28;96403.63;;;7.61;38.58
30819;BME280;17546;42.674;23.284;2022-12-20T06:57:53;96411.38;;;7.37;38.87
30819;BME280;17546;42.674;23.284;2022-12-20T07:00:21;96397.94;;;7.39;38.34
30819;BME280;17546;42.674;23.284;2022-12-20T07:02:46;96402.16;;;7.27;38.84
30819;BME280;17546;42.674;23.284;2022-12-20T07:05:11;96388.84;;;7.26;38.46
30819;BME280;17546;42.674;23.284;2022-12-20T07:07:37;96394.75;;;7.53;38.32
30819;BME280;17546;42.674;23.284;2022-12-20T07:10:02;96399.66;;;7.33;38.21
30819;BME280;17546;42.674;23.284;2022-12-20T07:12:28;96407.03;;;7.52;38.26
30819;BME280;17546;42.674;23.284;2022-12-20T07:14:53;96376.25;;;7.24;38.03
30819;BME280;17546;42.674;23.284;2022-12-20T07:17:19;96395.88;;;7.27;38.19
30819;BME280;17546;42.674;23.284;2022-12-20T07:19:44;96393.94;;;7.40;37.81
30819;BME280;17546;42.674;23.284;2022-12-20T07:22:10;96392.41;;;7.39;36.96
30819;BME280;17546;42.674;23.284;2022-12-20T07:24:35;96400.34;;;7.37;37.88
30819;BME280;17546;42.674;23.284;2022-12-20T07:27:00;96395.72;;;7.47;37.95
30819;BME280;17546;42.674;23.284;2022-12-20T07:29:26;96397.25;;;7.35;37.48
30819;BME280;17546;42.674;23.284;2022-12-20T07:31:52;96391.38;;;7.33;37.77
30819;BME280;17546;42.674;23.284;2022-12-20T07:34:17;96394.53;;;7.48;37.68
30819;BME280;17546;42.674;23.284;2022-12-20T07:36:43;96395.09;;;7.55;37.76
30819;BME280;17546;42.674;23.284;2022-12-20T07:39:09;96398.59;;;7.43;37.17
30819;BME280;17546;42.674;23.284;2022-12-20T07:41:35;96400.13;;;7.44;37.59
30819;BME280;17546;42.674;23.284;2022-12-20T07:44:00;96397.31;;;7.02;37.46
30819;BME280;17546;42.674;23.284;2022-12-20T07:46:26;96401.94;;;7.05;37.08
30819;BME280;17546;42.674;23.284;2022-12-20T07:48:52;96393.56;;;7.25;37.17
30819;BME280;17546;42.674;23.284;2022-12-20T07:51:20;96385.44;;;7.34;37.27
30819;BME280;17546;42.674;23.284;2022-12-20T07:53:51;96383.78;;;7.37;37.17
30819;BME280;17546;42.674;23.284;2022-12-20T07:56:21;96387.88;;;7.45;37.08
30819;BME280;17546;42.674;23.284;2022-12-20T07:58:56;96388.16;;;7.21;37.28
30819;BME280;17546;42.674;23.284;2022-12-20T08:01:24;96376.47;;;7.01;37.15
30819;BME280;17546;42.674;23.284;2022-12-20T08:03:52;96375.53;;;7.37;37.32
30819;BME280;17546;42.674;23.284;2022-12-20T08:06:23;96371.31;;;7.32;36.81
30819;BME280;17546;42.674;23.284;2022-12-20T08:08:53;96380.78;;;6.86;37.49
30819;BME280;17546;42.674;23.284;2022-12-20T08:11:23;96376.16;;;6.33;38.10
30819;BME280;17546;42.674;23.284;2022-12-20T08:13:50;96371.84;;;6.81;37.78
30819;BME280;17546;42.674;23.284;2022-12-20T08:16:16;96371.78;;;7.14;37.23
30819;BME280;17546;42.674;23.284;2022-12-20T08:18:41;96368.78;;;7.38;37.15
30819;BME280;17546;42.674;23.284;2022-12-20T08:21:07;96372.34;;;7.51;37.05
30819;BME280;17546;42.674;23.284;2022-12-20T08:23:33;96371.97;;;7.65;36.81
30819;BME280;17546;42.674;23.284;2022-12-20T08:26:03;96371.63;;;7.63;37.25
30819;BME280;17546;42.674;23.284;2022-12-20T08:28:29;96367.28;;;7.92;36.81
30819;BME280;17546;42.674;23.284;2022-12-20T08:31:06;96368.75;;;7.54;35.89
30819;BME280;17546;42.674;23.284;2022-12-20T08:33:33;96367.47;;;7.72;36.46
30819;BME280;17546;42.674;23.284;2022-12-20T08:36:01;96356.56;;;7.81;36.30
30819;BME280;17546;42.674;23.284;2022-12-20T08:38:27;96355.81;;;7.51;36.44
30819;BME280;17546;42.674;23.284;2022-12-20T08:40:53;96358.41;;;7.84;36.21
30819;BME280;17546;42.674;23.284;2022-12-20T08:43:19;96360.31;;;8.00;35.76
30819;BME280;17546;42.674;23.284;2022-12-20T08:45:44;96356.91;;;8.08;36.01
30819;BME280;17546;42.674;23.284;2022-12-20T08:48:15;96355.69;;;8.10;36.11
30819;BME280;17546;42.674;23.284;2022-12-20T08:50:41;96362.19;;;7.90;36.19
30819;BME280;17546;42.674;23.284;2022-12-20T08:53:07;96356.09;;;7.70;35.90
30819;BME280;17546;42.674;23.284;2022-12-20T08:55:32;96350.47;;;7.86;35.71
30819;BME280;17546;42.674;23.284;2022-12-20T08:57:57;96352.78;;;7.33;36.67
30819;BME280;17546;42.674;23.284;2022-12-20T09:00:23;96349.81;;;7.40;36.15
30819;BME280;17546;42.674;23.284;2022-12-20T09:02:48;96356.44;;;7.97;36.02
30819;BME280;17546;42.674;23.284;2022-12-20T09:05:15;96343.88;;;8.22;35.92
30819;BME280;17546;42.674;23.284;2022-12-20T09:07:41;96343.31;;;8.27;36.24
30819;BME280;17546;42.674;23.284;2022-12-20T09:10:07;96343.66;;;8.16;35.83
30819;BME280;17546;42.674;23.284;2022-12-20T09:12:36;96336.16;;;8.42;35.28
30819;BME280;17546;42.674;23.284;2022-12-20T09:15:02;96327.19;;;8.13;34.98
30819;BME280;17546;42.674;23.284;2022-12-20T09:17:28;96331.94;;;7.86;34.50
30819;BME280;17546;42.674;23.284;2022-12-20T09:19:54;96321.00;;;8.08;34.23
30819;BME280;17546;42.674;23.284;2022-12-20T09:22:19;96323.00;;;7.70;34.33
30819;BME280;17546;42.674;23.284;2022-12-20T09:24:45;96321.50;;;7.10;35.76
30819;BME280;17546;42.674;23.284;2022-12-20T09:27:10;96322.22;;;7.82;35.32
30819;BME280;17546;42.674;23.284;2022-12-20T09:29:36;96318.25;;;8.21;35.03
30819;BME280;17546;42.674;23.284;2022-12-20T09:32:02;96314.91;;;8.26;35.43
30819;BME280;17546;42.674;23.284;2022-12-20T09:34:27;96309.28;;;8.30;34.90
30819;BME280;17546;42.674;23.284;2022-12-20T09:36:53;96306.22;;;8.28;34.70
30819;BME280;17546;42.674;23.284;2022-12-20T09:39:19;96310.06;;;8.18;34.50
30819;BME280;17546;42.674;23.284;2022-12-20T09:41:45;96296.81;;;8.86;34.48
30819;BME280;17546;42.674;23.284;2022-12-20T09:44:26;96291.41;;;9.39;34.28
30819;BME280;17546;42.674;23.284;2022-12-20T09:47:13;96286.41;;;9.87;33.96
30819;BME280;17546;42.674;23.284;2022-12-20T09:49:46;96285.91;;;10.20;33.99
30819;BME280;17546;42.674;23.284;2022-12-20T10:00:17;96266.47;;;10.51;31.62
30819;BME280;17546;42.674;23.284;2022-12-20T10:02:44;96264.38;;;10.83;31.12
30819;BME280;17546;42.674;23.284;2022-12-20T10:17:03;96236.56;;;10.28;31.49
30819;BME280;17546;42.674;23.284;2022-12-20T10:22:27;96218.94;;;10.90;30.08
30819;BME280;17546;42.674;23.284;2022-12-20T10:27:31;96206.69;;;11.24;29.97
30819;BME280;17546;42.674;23.284;2022-12-20T10:30:13;96200.25;;;11.00;30.39
30819;BME280;17546;42.674;23.284;2022-12-20T10:32:42;96185.03;;;10.58;29.88
30819;BME280;17546;42.674;23.284;2022-12-20T10:37:34;96177.81;;;10.79;30.51
30819;BME280;17546;42.674;23.284;2022-12-20T10:40:04;96181.34;;;10.98;30.59
30819;BME280;17546;42.674;23.284;2022-12-20T10:42:41;96181.13;;;11.11;30.80
30819;BME280;17546;42.674;23.284;2022-12-20T10:47:42;96156.47;;;11.22;30.13
30819;BME280;17546;42.674;23.284;2022-12-20T10:50:22;96157.06;;;11.26;30.52
30819;BME280;17546;42.674;23.284;2022-12-20T10:53:24;96154.63;;;11.62;29.80
30819;BME280;17546;42.674;23.284;2022-12-20T10:55:50;96153.44;;;11.44;29.56
30819;BME280;17546;42.674;23.284;2022-12-20T11:01:24;96148.38;;;11.43;30.17
30819;BME280;17546;42.674;23.284;2022-12-20T11:06:49;96141.91;;;11.46;29.70
30819;BME280;17546;42.674;23.284;2022-12-20T11:14:35;96133.19;;;11.62;30.90
30819;BME280;17546;42.674;23.284;2022-12-20T11:17:36;96128.66;;;11.41;30.54
30819;BME280;17546;42.674;23.284;2022-12-20T11:20:21;96126.44;;;11.54;30.50
30819;BME280;17546;42.674;23.284;2022-12-20T11:23:00;96124.19;;;11.01;30.17
30819;BME280;17546;42.674;23.284;2022-12-20T11:31:32;96114.28;;;11.09;28.99
30819;BME280;17546;42.674;23.284;2022-12-20T11:42:22;96100.06;;;11.25;29.29
30819;BME280;17546;42.674;23.284;2022-12-20T11:52:57;96087.34;;;11.43;28.87
30819;BME280;17546;42.674;23.284;2022-12-20T11:55:33;96083.25;;;10.77;28.47
30819;BME280;17546;42.674;23.284;2022-12-20T11:58:17;96091.25;;;10.84;28.78
30819;BME280;17546;42.674;23.284;2022-12-20T12:01:11;96081.09;;;11.24;28.90
30819;BME280;17546;42.674;23.284;2022-12-20T12:04:10;96078.75;;;10.89;28.97
30819;BME280;17546;42.674;23.284;2022-12-20T12:06:45;96069.97;;;10.90;28.72
30819;BME280;17546;42.674;23.284;2022-12-20T12:09:14;96084.22;;;10.55;29.53
30819;BME280;17546;42.674;23.284;2022-12-20T12:11:49;96072.03;;;10.62;29.24
30819;BME280;17546;42.674;23.284;2022-12-20T12:15:02;96064.88;;;10.89;29.19
30819;BME280;17546;42.674;23.284;2022-12-20T12:17:53;96073.06;;;10.83;28.86
30819;BME280;17546;42.674;23.284;2022-12-20T12:20:40;96072.00;;;11.23;28.74
30819;BME280;17546;42.674;23.284;2022-12-20T12:26:08;96065.00;;;11.04;29.42
30819;BME280;17546;42.674;23.284;2022-12-20T12:28:35;96063.28;;;9.99;29.85
30819;BME280;17546;42.674;23.284;2022-12-20T12:31:08;96067.00;;;10.05;29.95
30819;BME280;17546;42.674;23.284;2022-12-20T12:33:43;96051.91;;;10.16;29.87
30819;BME280;17546;42.674;23.284;2022-12-20T12:36:34;96057.94;;;10.93;29.15
30819;BME280;17546;42.674;23.284;2022-12-20T12:44:25;96051.22;;;10.85;29.00
30819;BME280;17546;42.674;23.284;2022-12-20T12:46:59;96055.75;;;11.07;28.79
30819;BME280;17546;42.674;23.284;2022-12-20T12:49:28;96056.06;;;11.00;29.21
30819;BME280;17546;42.674;23.284;2022-12-20T12:51:57;96052.63;;;11.14;28.80
30819;BME280;17546;42.674;23.284;2022-12-20T12:56:51;96056.53;;;11.07;29.45
30819;BME280;17546;42.674;23.284;2022-12-20T13:09:58;96028.63;;;11.35;29.61
30819;BME280;17546;42.674;23.284;2022-12-20T13:17:53;96021.19;;;11.17;28.32
30819;BME280;17546;42.674;23.284;2022-12-20T13:20:23;96014.16;;;11.40;28.22
30819;BME280;17546;42.674;23.284;2022-12-20T13:33:42;96019.34;;;11.71;28.81
30819;BME280;17546;42.674;23.284;2022-12-20T13:43:43;96020.56;;;11.46;28.14
30819;BME280;17546;42.674;23.284;2022-12-20T13:48:49;96010.72;;;11.45;28.67
30819;BME280;17546;42.674;23.284;2022-12-20T13:51:24;96010.53;;;11.49;28.38
30819;BME280;17546;42.674;23.284;2022-12-20T13:54:06;96006.88;;;11.43;28.90
30819;BME280;17546;42.674;23.284;2022-12-20T13:56:49;96008.34;;;11.53;28.65
30819;BME280;17546;42.674;23.284;2022-12-20T13:59:24;96003.81;;;11.41;29.21
30819;BME280;17546;42.674;23.284;2022-12-20T14:01:54;95998.25;;;11.41;28.69
30819;BME280;17546;42.674;23.284;2022-12-20T14:04:20;95992.66;;;11.50;28.71
30819;BME280;17546;42.674;23.284;2022-12-20T14:06:56;95988.91;;;11.53;28.79
30819;BME280;17546;42.674;23.284;2022-12-20T14:09:27;95984.03;;;11.48;28.80
30819;BME280;17546;42.674;23.284;2022-12-20T14:11:54;95987.16;;;11.41;29.28
30819;BME280;17546;42.674;23.284;2022-12-20T14:14:19;95989.94;;;11.41;29.48
30819;BME280;17546;42.674;23.284;2022-12-20T14:16:44;95986.84;;;11.38;29.17
30819;BME280;17546;42.674;23.284;2022-12-20T14:19:14;95975.69;;;11.24;28.97
30819;BME280;17546;42.674;23.284;2022-12-20T14:21:42;95984.03;;;10.90;28.69
30819;BME280;17546;42.674;23.284;2022-12-20T14:24:19;95986.28;;;11.01;29.20
30819;BME280;17546;42.674;23.284;2022-12-20T14:26:50;95982.88;;;11.06;29.08
30819;BME280;17546;42.674;23.284;2022-12-20T14:29:28;95979.28;;;11.15;29.22
30819;BME280;17546;42.674;23.284;2022-12-20T14:31:54;95982.09;;;11.06;29.28
30819;BME280;17546;42.674;23.284;2022-12-20T14:34:26;95987.91;;;10.84;29.24
30819;BME280;17546;42.674;23.284;2022-12-20T14:37:25;95989.81;;;11.02;28.76
30819;BME280;17546;42.674;23.284;2022-12-20T14:39:58;95976.81;;;10.84;28.74
30819;BME280;17546;42.674;23.284;2022-12-20T14:42:31;95975.09;;;10.86;28.67
30819;BME280;17546;42.674;23.284;2022-12-20T14:45:03;95976.09;;;11.07;29.23
30819;BME280;17546;42.674;23.284;2022-12-20T14:47:28;95968.03;;;11.19;28.97
30819;BME280;17546;42.674;23.284;2022-12-20T14:49:59;95973.50;;;11.04;28.76
30819;BME280;17546;42.674;23.284;2022-12-20T14:57:39;95957.81;;;11.01;28.06
30819;BME280;17546;42.674;23.284;2022-12-20T15:02:58;95957.03;;;11.24;28.23
30819;BME280;17546;42.674;23.284;2022-12-20T15:05:34;95954.53;;;11.35;28.64
30819;BME280;17546;42.674;23.284;2022-12-20T15:08:29;95950.09;;;10.95;28.84
30819;BME280;17546;42.674;23.284;2022-12-20T15:13:40;95956.41;;;11.29;28.75
30819;BME280;17546;42.674;23.284;2022-12-20T15:16:16;95959.03;;;11.24;28.52